| time (UTC) | temp C | wind direction | speed KPH | gust KPH | rain 1hr cm | rain 24hr cm | rain mn cm | humidity % | barometer mb |
| 20260509064521 | 21 | 165 | 0.0 | 6.4 | 0.00 | 0.00 | 0.00 | 84 | 1005.5 |
| 20260509063028 | 21 | 177 | 0.0 | 8.0 | 0.00 | 0.00 | 0.00 | 83 | 1005.5 |
| 20260509061518 | 21 | 168 | 4.8 | 12.9 | 0.00 | 0.00 | 0.00 | 83 | 1004.9 |
| 20260509054559 | 21 | 166 | 3.2 | 8.0 | 0.00 | 0.00 | 0.00 | 81 | 1004.8 |
| 20260509053109 | 22 | 229 | 0.0 | 1.6 | 0.00 | 0.00 | 0.00 | 81 | 1005.7 |
| 20260509051601 | 22 | 193 | 0.0 | 6.4 | 0.00 | 0.00 | 0.00 | 81 | 1005.9 |
| 20260509044545 | 22 | 326 | 6.4 | 8.0 | 0.00 | 0.00 | 0.00 | 80 | 1005.9 |
| 20260509043052 | 22 | 171 | 0.0 | 11.3 | 0.00 | 0.00 | 0.00 | 79 | 1005.1 |
| 20260509041544 | 22 | 196 | 4.8 | 11.3 | 0.00 | 0.00 | 0.00 | 79 | 1004.6 |
| 20260509034545 | 22 | 174 | 6.4 | 12.9 | 0.00 | 0.00 | 0.00 | 78 | 1004.6 |
| 20260509033107 | 22 | 186 | 4.8 | 9.7 | 0.00 | 0.00 | 0.00 | 79 | 1004.8 |
| 20260509031544 | 22 | 322 | 6.4 | 9.7 | 0.00 | 0.00 | 0.00 | 79 | 1005.9 |
| 20260509024556 | 22 | 88 | 0.0 | 3.2 | 0.00 | 0.00 | 0.00 | 78 | 1005.1 |
| 20260509023045 | 22 | 121 | 0.0 | 6.4 | 0.00 | 0.00 | 0.00 | 77 | 1004.8 |
| 20260509021547 | 22 | 175 | 0.0 | 9.7 | 0.00 | 0.00 | 0.00 | 76 | 1003.9 |
| 20260509014553 | 22 | 158 | 1.6 | 9.7 | 0.00 | 0.00 | 0.00 | 75 | 1003.7 |
| 20260509013055 | 23 | 190 | 3.2 | 9.7 | 0.00 | 0.00 | 0.00 | 74 | 1003.5 |
| 20260509011559 | 23 | 164 | 1.6 | 11.3 | 0.00 | 0.00 | 0.00 | 74 | 1003.7 |
| 20260509004549 | 23 | 165 | 3.2 | 8.0 | 0.00 | 0.00 | 0.00 | 72 | 1003.5 |
| 20260509003051 | 23 | 181 | 6.4 | 12.9 | 0.00 | 0.00 | 0.00 | 72 | 1003.2 |
| 20260509001544 | 23 | 162 | 3.2 | 9.7 | 0.00 | 0.00 | 0.00 | 71 | 1003.1 |
| 20260508234539 | 24 | 175 | 8.0 | 16.1 | 0.00 | 0.00 | 0.00 | 70 | 1003.4 |
| 20260508233038 | 25 | 176 | 4.8 | 12.9 | 0.00 | 0.00 | 0.00 | 69 | 1003.5 |
| 20260508231536 | 25 | 184 | 8.0 | 16.1 | 0.00 | 0.00 | 0.00 | 68 | 1003.6 |
| 20260508224543 | 25 | 199 | 3.2 | 9.7 | 0.00 | 0.00 | 0.00 | 67 | 1003.6 |
| 20260508223034 | 25 | 192 | 3.2 | 11.3 | 0.00 | 0.00 | 0.00 | 66 | 1003.6 |
| 20260508221534 | 26 | 185 | 6.4 | 11.3 | 0.00 | 0.00 | 0.00 | 65 | 1003.6 |
| 20260508214542 | 25 | 152 | 8.0 | 14.5 | 0.00 | 0.00 | 0.00 | 65 | 1003.7 |
| 20260508213038 | 25 | 198 | 4.8 | 14.5 | 0.00 | 0.00 | 0.00 | 66 | 1003.5 |
| 20260508211534 | 25 | 182 | 4.8 | 14.5 | 0.00 | 0.00 | 0.00 | 65 | 1003.7 |
| 20260508204550 | 24 | 175 | 6.4 | 17.7 | 0.00 | 0.00 | 0.00 | 66 | 1005.0 |
| 20260508203049 | 25 | 194 | 8.0 | 14.5 | 0.00 | 0.00 | 0.00 | 65 | 1005.3 |
| 20260508201548 | 25 | 156 | 6.4 | 12.9 | 0.00 | 0.00 | 0.00 | 63 | 1005.4 |
| 20260508194526 | 26 | 180 | 8.0 | 14.5 | 0.00 | 0.00 | 0.00 | 60 | 1005.7 |
| 20260508193023 | 26 | 196 | 4.8 | 14.5 | 0.00 | 0.00 | 0.00 | 61 | 1005.7 |
| 20260508191522 | 26 | 171 | 6.4 | 12.9 | 0.00 | 0.00 | 0.00 | 60 | 1005.9 |
| 20260508184521 | 25 | 199 | 3.2 | 16.1 | 0.00 | 0.00 | 0.00 | 63 | 1006.2 |
| 20260508183013 | 25 | 157 | 6.4 | 14.5 | 0.00 | 0.00 | 0.00 | 62 | 1006.4 |
| 20260508181510 | 24 | 188 | 3.2 | 11.3 | 0.00 | 0.00 | 0.00 | 65 | 1006.9 |
| 20260508174505 | 23 | 184 | 3.2 | 9.7 | 0.00 | 0.00 | 0.00 | 66 | 1007.3 |
| 20260508173001 | 23 | 177 | 0.0 | 12.9 | 0.00 | 0.00 | 0.00 | 66 | 1007.5 |
| 20260508171559 | 22 | 186 | 4.8 | 11.3 | 0.00 | 0.00 | 0.00 | 65 | 1008.0 |
| 20260508164553 | 21 | 157 | 6.4 | 16.1 | 0.00 | 0.00 | 0.00 | 69 | 1008.7 |
| 20260508163103 | 21 | 173 | 1.6 | 9.7 | 0.00 | 0.00 | 0.00 | 71 | 1008.9 |
| 20260508161555 | 20 | 188 | 3.2 | 11.3 | 0.00 | 0.00 | 0.00 | 71 | 1009.2 |
| 20260508154548 | 19 | 177 | 1.6 | 12.9 | 0.00 | 0.00 | 0.00 | 74 | 1009.3 |
| 20260508153100 | 19 | 175 | 1.6 | 8.0 | 0.00 | 0.00 | 0.00 | 74 | 1009.4 |
| 20260508151547 | 18 | 175 | 1.6 | 8.0 | 0.00 | 0.00 | 0.00 | 79 | 1009.8 |
| 20260508144535 | 17 | 161 | 0.0 | 3.2 | 0.00 | 0.00 | 0.00 | 84 | 1009.7 |
| 20260508143056 | 17 | 134 | 3.2 | 8.0 | 0.00 | 0.00 | 0.00 | 85 | 1010.2 |
| 20260508141536 | 16 | 159 | 0.0 | 8.0 | 0.00 | 0.00 | 0.00 | 88 | 1009.9 |
| 20260508134538 | 16 | 181 | 0.0 | 8.0 | 0.00 | 0.00 | 0.00 | 90 | 1010.1 |
| 20260508133035 | 16 | 173 | 0.0 | 6.4 | 0.00 | 0.00 | 0.00 | 90 | 1010.1 |
| 20260508131535 | 15 | 174 | 0.0 | 6.4 | 0.00 | 0.00 | 0.00 | 90 | 1010.0 |
| 20260508124534 | 15 | 169 | 1.6 | 6.4 | 0.00 | 0.00 | 0.00 | 90 | 1010.2 |
| 20260508123034 | 15 | 187 | 0.0 | 0.0 | 0.00 | 0.00 | 0.00 | 90 | 1010.8 |
| 20260508121533 | 15 | 184 | 0.0 | 3.2 | 0.00 | 0.00 | 0.00 | 90 | 1010.1 |
| 20260508114533 | 15 | 172 | 0.0 | 0.0 | 0.00 | 0.00 | 0.00 | 89 | 1010.2 |
| 20260508113034 | 15 | 178 | 0.0 | 11.3 | 0.00 | 0.00 | 0.00 | 88 | 1009.9 |
| 20260508111531 | 15 | 176 | 0.0 | 0.0 | 0.00 | 0.00 | 0.00 | 88 | 1010.2 |
| 20260508104541 | 16 | 145 | 1.6 | 4.8 | 0.00 | 0.00 | 0.00 | 86 | 1010.5 |
| 20260508103046 | 16 | 170 | 1.6 | 6.4 | 0.00 | 0.00 | 0.00 | 85 | 1010.1 |
| 20260508101539 | 16 | 244 | 0.0 | 0.0 | 0.00 | 0.00 | 0.00 | 84 | 1010.0 |
| 20260508094528 | 16 | 180 | 0.0 | 1.6 | 0.00 | 0.00 | 0.00 | 84 | 1009.1 |
| 20260508093035 | 16 | 180 | 0.0 | 3.2 | 0.00 | 0.00 | 0.00 | 84 | 1009.0 |
| 20260508091528 | 16 | 179 | 1.6 | 6.4 | 0.00 | 0.00 | 0.00 | 83 | 1009.3 |
| 20260508084638 | 16 | 201 | 0.0 | 0.0 | 0.00 | 0.00 | 0.00 | 81 | 1009.4 |
| 20260508083035 | 16 | 269 | 0.0 | 9.7 | 0.00 | 0.00 | 0.00 | 79 | 1010.5 |
| 20260508081543 | 17 | 36 | 0.0 | 6.4 | 0.00 | 0.00 | 0.00 | 78 | 1009.3 |
| 20260508074520 | 17 | 163 | 1.6 | 3.2 | 0.00 | 0.00 | 0.00 | 75 | 1011.0 |
| 20260508073018 | 16 | 161 | 0.0 | 0.0 | 0.00 | 0.00 | 0.00 | 75 | 1011.3 |
| 20260508071517 | 16 | 161 | 0.0 | 0.0 | 0.00 | 0.00 | 0.00 | 75 | 1010.8 |